Time;durP1;ratioP1;P1;durP2;ratioP2;P2;SDS_P1;SDS_P2;PMS_P1;PMS_P2;Temp;Humidity;BMP_temperature;BMP_pressure;BME280_temperature;BME280_humidity;BME280_pressure;Samples;Min_cycle;Max_cycle;Signal;HPM_P1;HPM_P2
2023/07/21 00:00:18;;;;;;;5.80;4.63;;;;;;;13.80;80.23;101158.84;4942381;28;20032;-93
2023/07/21 00:02:44;;;;;;;5.72;5.15;;;;;;;13.79;81.02;101162.38;4942669;29;20039;-94
2023/07/21 00:05:10;;;;;;;6.32;5.35;;;;;;;13.78;81.55;101159.78;4950894;28;20474;-93
2023/07/21 00:07:35;;;;;;;5.55;4.95;;;;;;;13.78;81.79;101154.56;4947913;29;20126;-93
2023/07/21 00:10:08;;;;;;;7.35;5.72;;;;;;;13.80;81.93;101153.63;4937846;29;20075;-94
2023/07/21 00:12:34;;;;;;;7.53;5.30;;;;;;;13.78;80.56;101152.81;4935027;29;20032;-92
2023/07/21 00:15:00;;;;;;;7.78;5.03;;;;;;;13.74;80.99;101148.59;4932578;29;20036;-94
2023/07/21 00:17:25;;;;;;;5.45;4.90;;;;;;;13.70;81.10;101149.59;4934346;29;20494;-95
2023/07/21 00:19:51;;;;;;;5.95;5.20;;;;;;;13.69;81.32;101147.88;4932209;29;20051;-93
2023/07/21 00:22:16;;;;;;;6.13;4.85;;;;;;;13.69;81.40;101155.72;4938176;29;20023;-94
2023/07/21 00:24:42;;;;;;;5.38;4.88;;;;;;;13.68;81.06;101150.56;4940358;29;20546;-93
2023/07/21 00:27:08;;;;;;;6.60;5.38;;;;;;;13.66;81.44;101150.63;4940701;29;20063;-94
2023/07/21 00:29:33;;;;;;;6.25;5.55;;;;;;;13.63;81.37;101150.72;4941482;29;20036;-93
2023/07/21 00:31:58;;;;;;;7.15;5.45;;;;;;;13.57;80.91;101145.69;4936859;29;20073;-94
2023/07/21 00:34:24;;;;;;;8.10;5.32;;;;;;;13.54;81.97;101151.88;4937180;29;20455;-94
2023/07/21 00:36:53;;;;;;;6.20;5.60;;;;;;;13.56;83.29;101149.19;4933982;29;20317;-94
2023/07/21 00:39:19;;;;;;;7.00;5.60;;;;;;;13.58;81.59;101147.41;4932034;29;20079;-93
2023/07/21 00:41:44;;;;;;;7.43;6.40;;;;;;;13.56;81.77;101141.34;4936088;29;20472;-94
2023/07/21 00:44:10;;;;;;;9.52;6.28;;;;;;;13.53;81.91;101144.94;4942492;29;20065;-94
2023/07/21 00:46:36;;;;;;;6.78;6.03;;;;;;;13.54;81.66;101135.31;4934795;29;20047;-95
2023/07/21 00:49:05;;;;;;;8.18;6.55;;;;;;;13.53;82.07;101144.06;4936673;29;20110;-94
2023/07/21 00:51:31;;;;;;;6.30;5.68;;;;;;;13.48;82.23;101134.66;4937921;29;20028;-94
2023/07/21 00:53:57;;;;;;;7.05;6.28;;;;;;;13.49;82.85;101133.72;4934859;29;20119;-93
2023/07/21 00:56:23;;;;;;;7.30;6.00;;;;;;;13.49;83.18;101138.94;4940301;29;20098;-94
2023/07/21 00:58:49;;;;;;;7.45;6.10;;;;;;;13.51;82.97;101126.69;4939423;29;20078;-93
2023/07/21 01:01:14;;;;;;;6.72;5.95;;;;;;;13.54;82.91;101130.97;4932322;29;20031;-93
2023/07/21 01:03:40;;;;;;;6.80;6.07;;;;;;;13.54;82.87;101124.88;4933702;29;20035;-93
2023/07/21 01:06:08;;;;;;;6.60;5.90;;;;;;;13.53;82.53;101118.81;4939716;29;20527;-94
2023/07/21 01:08:34;;;;;;;6.78;5.78;;;;;;;13.55;82.58;101122.22;4939751;29;20035;-95
2023/07/21 01:11:01;;;;;;;7.07;5.80;;;;;;;13.53;82.23;101117.94;4932732;29;20055;-95
2023/07/21 01:13:27;;;;;;;6.68;5.97;;;;;;;13.48;81.56;101121.56;4934080;29;20098;-94
2023/07/21 01:15:55;;;;;;;9.55;6.20;;;;;;;13.47;82.18;101117.25;4930871;29;20364;-94
2023/07/21 01:18:22;;;;;;;7.78;5.85;;;;;;;13.44;81.61;101113.88;4931315;29;20027;-94
2023/07/21 01:20:49;;;;;;;6.95;6.00;;;;;;;13.41;81.54;101107.00;4932711;29;20035;-94
2023/07/21 01:23:22;;;;;;;6.68;5.97;;;;;;;13.42;81.98;101105.22;4932603;29;20059;-94
2023/07/21 01:25:51;;;;;;;7.28;5.32;;;;;;;13.44;81.96;101104.28;4933992;29;20083;-94
2023/07/21 01:28:17;;;;;;;5.93;5.32;;;;;;;13.40;80.94;101107.03;4944801;28;20521;-95
2023/07/21 01:30:48;;;;;;;6.15;5.30;;;;;;;13.37;80.93;101102.72;4937732;29;20070;-95
2023/07/21 01:33:17;;;;;;;6.53;5.65;;;;;;;13.33;81.51;101101.13;4939821;29;20550;-94
2023/07/21 01:35:43;;;;;;;7.88;5.65;;;;;;;13.33;82.55;101098.50;4941453;29;20474;-94
2023/07/21 01:38:10;;;;;;;6.32;5.72;;;;;;;13.33;81.70;101096.75;4934306;29;20110;-91
2023/07/21 01:40:36;;;;;;;5.90;5.30;;;;;;;13.30;81.85;101096.03;4960371;28;20043;-92
2023/07/21 01:43:01;;;;;;;6.60;5.40;;;;;;;13.26;81.85;101097.84;4947005;29;20091;-93
2023/07/21 01:45:27;;;;;;;6.45;5.53;;;;;;;13.25;81.60;101097.91;4944160;29;20031;-94
2023/07/21 01:47:55;;;;;;;6.95;5.65;;;;;;;13.24;81.46;101090.97;4937409;29;20067;-94
2023/07/21 01:50:21;;;;;;;6.40;5.40;;;;;;;13.17;80.86;101088.56;4937672;28;20070;-94
2023/07/21 01:52:47;;;;;;;7.05;5.32;;;;;;;13.14;81.04;101091.31;4938633;29;20072;-94
2023/07/21 01:55:19;;;;;;;6.47;5.75;;;;;;;13.06;81.14;101088.06;4950178;29;20044;-95
2023/07/21 01:57:48;;;;;;;9.13;5.82;;;;;;;13.05;81.80;101087.22;4930859;29;20046;-93
2023/07/21 02:00:15;;;;;;;6.88;6.05;;;;;;;13.04;81.91;101085.53;4917941;29;20675;-93
2023/07/21 02:02:41;;;;;;;6.47;5.68;;;;;;;13.05;82.01;101086.34;4931666;29;20024;-94
2023/07/21 02:05:22;;;;;;;7.43;5.85;;;;;;;13.04;81.79;101084.66;4934184;29;20497;-94
2023/07/21 02:07:47;;;;;;;7.28;5.45;;;;;;;12.98;80.90;101085.69;4936028;29;20027;-95
2023/07/21 02:10:12;;;;;;;6.70;5.70;;;;;;;12.93;81.54;101076.31;4936082;28;20121;-92
2023/07/21 02:12:38;;;;;;;6.20;5.43;;;;;;;12.86;81.99;101075.66;4941646;29;20015;-94
2023/07/21 02:15:07;;;;;;;7.07;5.80;;;;;;;12.81;82.10;101073.16;4945655;29;20046;-92
2023/07/21 02:17:33;;;;;;;8.75;6.30;;;;;;;12.79;82.06;101072.38;4936573;29;20036;-93
2023/07/21 02:19:59;;;;;;;7.60;5.72;;;;;;;12.75;81.81;101068.16;4937897;29;20038;-93
2023/07/21 02:22:24;;;;;;;9.60;5.88;;;;;;;12.73;82.07;101077.78;4936600;29;20027;-93
2023/07/21 02:24:49;;;;;;;6.78;5.82;;;;;;;12.70;82.21;101070.91;4936701;29;20444;-94
2023/07/21 02:27:15;;;;;;;6.40;5.72;;;;;;;12.70;82.30;101072.66;4945751;29;20036;-94
2023/07/21 02:29:40;;;;;;;7.82;6.38;;;;;;;12.72;82.06;101063.03;4938459;29;20038;-93
2023/07/21 02:32:06;;;;;;;6.70;6.00;;;;;;;12.72;81.85;101069.09;4943577;28;20028;-94
2023/07/21 02:34:31;;;;;;;8.07;5.82;;;;;;;12.69;82.06;101060.50;4938783;29;20383;-93
2023/07/21 02:36:56;;;;;;;6.32;5.68;;;;;;;12.67;82.68;101067.53;4946570;29;20036;-93
2023/07/21 02:39:22;;;;;;;6.05;5.22;;;;;;;12.66;81.86;101071.03;4936179;29;20047;-95
2023/07/21 02:41:47;;;;;;;6.57;5.28;;;;;;;12.62;81.18;101072.06;4937168;29;20031;-93
2023/07/21 02:44:12;;;;;;;6.85;5.28;;;;;;;12.56;81.14;101063.50;4942579;28;20035;-94
2023/07/21 02:46:37;;;;;;;6.10;5.38;;;;;;;12.51;81.75;101064.53;4941991;29;20431;-94
2023/07/21 02:49:03;;;;;;;7.10;6.18;;;;;;;12.46;82.42;101067.31;4940774;29;20083;-93
2023/07/21 02:51:28;;;;;;;8.25;6.00;;;;;;;12.43;82.75;101063.00;4937088;28;20068;-93
2023/07/21 02:53:54;;;;;;;6.72;6.03;;;;;;;12.41;82.18;101056.13;4938258;29;20090;-93
2023/07/21 02:56:19;;;;;;;6.57;5.72;;;;;;;12.40;82.24;101062.25;4939070;29;20059;-94
2023/07/21 02:58:45;;;;;;;7.85;6.22;;;;;;;12.38;82.03;101056.22;4939477;29;20028;-94
2023/07/21 03:01:12;;;;;;;6.45;5.72;;;;;;;12.30;81.96;101052.06;4935652;29;20455;-93
2023/07/21 03:03:38;;;;;;;6.55;5.65;;;;;;;12.27;82.92;101052.19;4940033;29;20435;-93
2023/07/21 03:06:05;;;;;;;7.05;5.68;;;;;;;12.25;83.26;101048.78;4944199;29;20031;-94
2023/07/21 03:08:31;;;;;;;7.18;5.47;;;;;;;12.23;84.31;101055.78;4938267;28;20082;-93
2023/07/21 03:10:56;;;;;;;7.15;5.70;;;;;;;12.23;83.89;101053.19;4935866;29;20035;-94
2023/07/21 03:13:24;;;;;;;6.80;6.07;;;;;;;12.23;83.61;101050.56;4941280;29;20027;-92
2023/07/21 03:15:50;;;;;;;6.63;5.65;;;;;;;12.24;83.73;101052.28;4934899;29;20126;-94
2023/07/21 03:18:15;;;;;;;6.50;5.53;;;;;;;12.28;83.34;101056.50;4934726;29;21694;-93
2023/07/21 03:20:40;;;;;;;6.95;5.55;;;;;;;12.27;83.81;101060.03;4932748;29;20032;-94
2023/07/21 03:23:07;;;;;;;6.13;5.53;;;;;;;12.27;83.59;101052.19;4936886;29;20027;-93
2023/07/21 03:25:34;;;;;;;6.40;5.68;;;;;;;12.26;82.92;101052.22;4935732;28;20460;-94
2023/07/21 03:27:59;;;;;;;6.32;5.50;;;;;;;12.24;83.06;101057.50;4936820;29;20035;-94
2023/07/21 03:30:24;;;;;;;6.07;5.47;;;;;;;12.23;83.07;101057.53;4940758;29;20130;-94
2023/07/21 03:32:50;;;;;;;6.05;5.45;;;;;;;12.23;82.99;101050.56;4945344;29;20031;-93
2023/07/21 03:35:15;;;;;;;5.78;5.18;;;;;;;12.24;82.76;101057.50;4936090;29;20531;-93
2023/07/21 03:37:40;;;;;;;5.68;4.43;;;;;;;12.22;82.60;101054.06;4936591;29;20519;-93
2023/07/21 03:40:07;;;;;;;6.70;5.03;;;;;;;12.18;82.73;101052.44;4935199;29;20043;-93
2023/07/21 03:42:35;;;;;;;6.55;5.60;;;;;;;12.11;82.40;101050.94;4941805;29;20047;-94
2023/07/21 03:45:04;;;;;;;6.35;5.28;;;;;;;12.10;82.93;101054.44;4944377;29;20031;-93
2023/07/21 03:47:36;;;;;;;6.90;5.30;;;;;;;12.09;83.55;101048.34;4944068;29;20031;-94
2023/07/21 03:50:02;;;;;;;8.20;5.25;;;;;;;12.06;83.75;101045.81;4939903;29;20348;-94
2023/07/21 03:52:28;;;;;;;6.72;5.68;;;;;;;12.05;83.99;101051.94;4953705;28;20117;-92
2023/07/21 03:54:53;;;;;;;7.35;5.32;;;;;;;11.99;82.88;101047.75;4950532;28;20592;-93
2023/07/21 03:57:20;;;;;;;6.03;5.43;;;;;;;11.99;83.72;101052.13;4954864;28;20042;-94
2023/07/21 03:59:47;;;;;;;6.68;5.70;;;;;;;12.00;84.57;101048.63;4939286;28;20023;-93
2023/07/21 04:02:12;;;;;;;8.52;5.55;;;;;;;12.02;85.00;101045.97;4943801;28;20023;-93
2023/07/21 04:04:37;;;;;;;7.47;6.18;;;;;;;12.04;85.87;101049.38;4947504;28;20114;-93
2023/07/21 04:07:05;;;;;;;8.18;5.53;;;;;;;12.08;86.06;101045.81;4934822;29;20486;-93
2023/07/21 04:09:31;;;;;;;9.55;5.90;;;;;;;12.13;85.99;101059.53;4936674;29;20391;-93
2023/07/21 04:11:57;;;;;;;6.47;4.93;;;;;;;12.13;85.19;101057.81;4935287;29;20066;-93
2023/07/21 04:14:22;;;;;;;5.93;5.28;;;;;;;12.15;85.23;101052.53;4938909;28;20059;-93
2023/07/21 04:16:47;;;;;;;6.82;5.65;;;;;;;12.14;85.43;101045.59;4940637;29;20062;-93
2023/07/21 04:19:13;;;;;;;6.63;5.70;;;;;;;12.13;85.15;101047.38;4948087;29;20023;-94
2023/07/21 04:21:38;;;;;;;7.20;5.43;;;;;;;12.15;85.26;101042.09;4934370;29;20027;-93
2023/07/21 04:24:05;;;;;;;7.78;5.65;;;;;;;12.15;85.42;101039.50;4933671;29;20392;-93
2023/07/21 04:26:30;;;;;;;8.82;6.10;;;;;;;12.17;85.31;101035.09;4936195;28;20480;-93
2023/07/21 04:28:56;;;;;;;6.97;5.97;;;;;;;12.21;85.39;101041.09;4941859;29;20115;-93
2023/07/21 04:31:28;;;;;;;6.65;5.80;;;;;;;12.23;85.54;101036.66;4931919;29;20487;-93
2023/07/21 04:33:53;;;;;;;;;;;;;;;12.30;83.40;101032.97;4947089;29;20081;-93
2023/07/21 04:36:19;;;;;;;7.93;5.20;;;;;;;12.26;85.65;101028.75;4936812;28;20354;-93
2023/07/21 04:38:44;;;;;;;8.70;5.80;;;;;;;12.28;85.66;101032.16;4950046;29;20123;-93
2023/07/21 04:41:12;;;;;;;7.13;5.80;;;;;;;12.29;86.09;101028.66;4933759;29;20114;-93
2023/07/21 04:43:37;;;;;;;9.65;6.43;;;;;;;12.30;85.55;101026.00;4948339;29;20065;-93
2023/07/21 04:46:02;;;;;;;8.75;6.40;;;;;;;12.28;86.02;101027.81;4934056;29;20066;-93
2023/07/21 04:48:28;;;;;;;8.48;6.70;;;;;;;12.30;86.11;101026.00;4939656;29;20066;-94
2023/07/21 04:50:53;;;;;;;8.05;6.45;;;;;;;12.32;86.17;101020.75;4943323;28;20031;-94
2023/07/21 04:53:18;;;;;;;7.38;6.57;;;;;;;12.35;86.14;101012.84;4942756;29;20031;-93
2023/07/21 04:55:44;;;;;;;9.10;6.50;;;;;;;12.38;86.65;101017.09;4939987;29;21389;-93
2023/07/21 04:58:09;;;;;;;10.00;6.90;;;;;;;12.43;86.69;101025.63;4937135;29;20083;-95
2023/07/21 05:00:34;;;;;;;8.27;6.95;;;;;;;12.48;86.96;101018.50;4934463;29;20271;-93
2023/07/21 05:03:00;;;;;;;8.65;6.68;;;;;;;12.55;86.69;101025.25;4931593;29;20479;-94
2023/07/21 05:05:27;;;;;;;8.73;6.70;;;;;;;12.63;86.69;101026.78;4925364;29;20035;-92
2023/07/21 05:07:52;;;;;;;9.48;6.93;;;;;;;12.69;86.79;101029.19;4930954;29;20035;-93
2023/07/21 05:10:18;;;;;;;9.75;6.75;;;;;;;12.75;87.20;101026.38;4935264;29;20413;-92
2023/07/21 05:12:43;;;;;;;9.95;7.30;;;;;;;12.82;87.43;101022.66;4933401;29;20030;-94
2023/07/21 05:15:09;;;;;;;9.65;6.97;;;;;;;12.88;87.32;101027.69;4935429;29;20518;-93
2023/07/21 05:17:34;;;;;;;10.65;8.70;;;;;;;12.95;87.58;101022.28;4934538;28;20150;-94
2023/07/21 05:20:00;;;;;;;12.95;10.45;;;;;;;13.03;87.53;101025.47;4935004;29;20035;-92
2023/07/21 05:22:25;;;;;;;20.02;14.65;;;;;;;13.11;87.46;101022.59;4931397;29;20498;-93
2023/07/21 05:24:51;;;;;;;17.38;14.35;;;;;;;13.16;87.33;101021.53;4930752;29;20050;-94
2023/07/21 05:27:17;;;;;;;17.23;14.63;;;;;;;13.24;87.44;101017.84;4932454;29;20511;-93
2023/07/21 05:29:42;;;;;;;12.88;9.73;;;;;;;13.29;86.50;101023.75;4934180;29;21517;-93
2023/07/21 05:32:08;;;;;;;18.70;8.65;;;;;;;13.32;86.70;101021.88;4929242;29;20106;-93
2023/07/21 05:34:33;;;;;;;18.60;8.85;;;;;;;13.40;86.76;101021.66;4931559;29;20115;-93
2023/07/21 05:37:00;;;;;;;10.45;7.78;;;;;;;13.43;86.94;101024.16;4936260;29;20043;-92
2023/07/21 05:39:31;;;;;;;9.70;7.82;;;;;;;13.50;86.86;101019.56;4958890;29;20043;-93
2023/07/21 05:41:58;;;;;;;10.10;8.23;;;;;;;13.56;87.15;101023.72;4955433;29;20047;-95
2023/07/21 05:44:23;;;;;;;10.52;8.48;;;;;;;13.63;87.45;101033.06;4955999;28;20019;-92
2023/07/21 05:46:49;;;;;;;10.52;8.25;;;;;;;13.68;87.17;101033.75;4966171;28;20086;-93
2023/07/21 05:49:15;;;;;;;15.32;8.65;;;;;;;13.76;86.35;101031.72;4970614;28;20043;-93
2023/07/21 05:51:41;;;;;;;11.82;8.57;;;;;;;13.82;86.76;101030.63;4964870;28;20019;-94
2023/07/21 05:54:07;;;;;;;10.48;8.50;;;;;;;13.91;86.00;101029.44;4941410;29;20026;-93
2023/07/21 05:56:32;;;;;;;10.52;8.70;;;;;;;13.96;86.24;101030.16;4944581;28;20379;-92
2023/07/21 05:58:57;;;;;;;11.80;8.75;;;;;;;14.02;85.65;101027.28;4938642;29;20036;-94
2023/07/21 06:01:24;;;;;;;10.60;8.00;;;;;;;14.10;86.36;101030.47;4939951;29;20023;-93
2023/07/21 06:03:49;;;;;;;10.13;8.90;;;;;;;14.17;86.27;101025.03;4938207;28;20020;-92
2023/07/21 06:06:15;;;;;;;12.38;9.45;;;;;;;14.24;86.67;101023.88;4933748;29;20035;-94
2023/07/21 06:08:40;;;;;;;10.77;8.95;;;;;;;14.28;86.69;101025.47;4936038;29;20028;-93
2023/07/21 06:11:06;;;;;;;10.65;8.77;;;;;;;14.32;86.00;101024.44;4933911;29;20498;-94
2023/07/21 06:13:31;;;;;;;10.90;8.82;;;;;;;14.36;86.12;101026.00;4930071;29;20127;-94
2023/07/21 06:15:56;;;;;;;11.68;9.23;;;;;;;14.43;86.51;101024.03;4933174;29;20067;-93
2023/07/21 06:18:22;;;;;;;11.50;9.43;;;;;;;14.50;85.91;101025.47;4930666;29;20034;-94
2023/07/21 06:20:52;;;;;;;12.18;10.00;;;;;;;14.60;86.17;101033.81;4935964;29;20036;-92
2023/07/21 06:23:17;;;;;;;12.15;10.13;;;;;;;14.71;86.88;101031.66;4932116;29;20028;-94
2023/07/21 06:25:44;;;;;;;11.13;10.00;;;;;;;14.83;86.82;101034.72;4927339;29;20200;-94
2023/07/21 06:28:10;;;;;;;12.73;10.35;;;;;;;14.96;86.50;101035.03;4933333;29;20495;-94
2023/07/21 06:30:35;;;;;;;12.05;10.13;;;;;;;15.03;86.35;101032.09;4930057;29;20051;-94
2023/07/21 06:33:04;;;;;;;13.43;11.45;;;;;;;15.11;85.64;101036.19;4931021;29;20475;-95
2023/07/21 06:35:30;;;;;;;14.50;11.50;;;;;;;15.16;85.14;101035.06;4925990;29;20035;-94
2023/07/21 06:37:56;;;;;;;13.50;11.80;;;;;;;15.22;84.57;101030.50;4927026;29;20055;-94
2023/07/21 06:40:23;;;;;;;14.30;12.05;;;;;;;15.27;84.80;101028.53;4930591;29;20118;-94
2023/07/21 06:42:49;;;;;;;14.10;11.10;;;;;;;15.33;84.18;101026.50;4930454;29;20466;-94
2023/07/21 06:45:15;;;;;;;14.77;11.13;;;;;;;15.40;83.91;101019.22;4931283;29;20044;-94
2023/07/21 06:47:41;;;;;;;11.95;10.25;;;;;;;15.46;83.15;101023.34;4928751;29;20032;-94
2023/07/21 06:50:07;;;;;;;13.25;9.68;;;;;;;15.48;83.23;101016.25;4932591;29;20050;-94
2023/07/21 06:52:36;;;;;;;11.80;9.98;;;;;;;15.54;82.88;101021.22;4929525;28;20102;-94
2023/07/21 06:55:02;;;;;;;12.07;9.73;;;;;;;15.60;82.04;101020.97;4934042;29;20110;-95
2023/07/21 06:57:30;;;;;;;11.35;9.43;;;;;;;15.65;82.46;101012.03;4938289;29;20035;-94
2023/07/21 06:59:55;;;;;;;11.63;9.43;;;;;;;15.70;81.94;101017.94;4935836;29;20086;-95
2023/07/21 07:02:21;;;;;;;12.48;8.90;;;;;;;15.76;81.54;101015.03;4940082;29;20035;-93
2023/07/21 07:04:51;;;;;;;9.63;8.23;;;;;;;15.83;80.81;101016.47;4935807;29;20028;-94
2023/07/21 07:07:17;;;;;;;17.83;9.27;;;;;;;15.89;81.48;101016.22;4932069;29;20028;-94
2023/07/21 07:09:42;;;;;;;11.00;9.10;;;;;;;15.95;81.47;101011.63;4937457;29;20027;-95
2023/07/21 07:12:08;;;;;;;11.02;9.38;;;;;;;16.01;81.52;101020.06;4940406;29;20031;-94
2023/07/21 07:14:36;;;;;;;10.13;8.77;;;;;;;16.04;80.06;101016.47;4943103;29;20047;-95
2023/07/21 07:17:02;;;;;;;13.82;8.32;;;;;;;16.06;79.76;101020.69;4933579;29;20043;-94
2023/07/21 07:19:28;;;;;;;10.70;7.90;;;;;;;16.10;78.78;101016.16;4938592;29;20383;-95
2023/07/21 07:21:53;;;;;;;9.07;7.57;;;;;;;16.12;77.43;101022.19;4930812;29;20369;-93
2023/07/21 07:24:20;;;;;;;11.60;7.55;;;;;;;16.13;78.25;101010.75;4927852;29;20114;-95
2023/07/21 07:26:46;;;;;;;9.82;7.72;;;;;;;16.20;78.87;101014.81;4928241;29;20055;-94
2023/07/21 07:29:15;;;;;;;8.93;7.35;;;;;;;16.28;78.26;101021.47;4931284;29;20032;-94
2023/07/21 07:31:44;;;;;;;8.77;7.10;;;;;;;16.33;77.24;101019.50;4928019;29;21506;-95
2023/07/21 07:34:27;;;;;;;9.85;7.50;;;;;;;16.35;78.05;101020.28;4928470;29;20501;-92
2023/07/21 07:36:58;;;;;;;9.15;7.50;;;;;;;16.42;78.26;101021.66;4935345;29;20053;-94
2023/07/21 07:39:24;;;;;;;8.97;7.00;;;;;;;16.48;77.17;101021.38;4938595;29;20062;-94
2023/07/21 07:41:51;;;;;;;7.88;6.45;;;;;;;16.53;76.94;101022.03;4937788;29;20027;-93
2023/07/21 07:44:17;;;;;;;8.35;6.50;;;;;;;16.60;75.99;101019.94;4935767;29;20026;-92
2023/07/21 07:46:43;;;;;;;10.32;6.18;;;;;;;16.71;75.41;101029.06;4930470;29;20403;-94
2023/07/21 07:49:09;;;;;;;7.85;5.97;;;;;;;16.78;75.26;101020.81;4940095;29;20392;-93
2023/07/21 07:51:38;;;;;;;7.03;6.03;;;;;;;16.81;74.94;101020.66;4938445;29;20070;-94
2023/07/21 07:54:05;;;;;;;9.70;6.40;;;;;;;16.88;75.05;101023.00;4943705;29;20034;-95
2023/07/21 07:56:30;;;;;;;7.28;6.05;;;;;;;16.92;73.75;101027.16;4954784;28;20058;-92
2023/07/21 07:58:57;;;;;;;5.78;5.18;;;;;;;16.95;73.33;101024.41;4940860;29;20747;-92
2023/07/21 08:01:22;;;;;;;6.63;5.78;;;;;;;17.00;72.86;101030.31;4939384;29;20499;-91
2023/07/21 08:03:48;;;;;;;10.40;5.95;;;;;;;17.05;72.53;101027.44;4936898;29;20070;-94
2023/07/21 08:06:13;;;;;;;7.97;5.47;;;;;;;17.09;71.89;101035.09;4934807;29;20059;-93
2023/07/21 08:09:02;;;;;;;7.13;5.80;;;;;;;17.18;73.14;101032.94;4938950;29;20028;-94
2023/07/21 08:11:38;;;;;;;19.02;5.68;;;;;;;17.22;71.81;101026.59;4929669;29;20066;-96
2023/07/21 08:14:06;;;;;;;7.88;5.65;;;;;;;17.27;71.48;101022.81;4935078;29;20027;-95
2023/07/21 08:16:31;;;;;;;8.35;5.43;;;;;;;17.31;70.27;101030.53;4935912;29;20094;-94
2023/07/21 08:18:57;;;;;;;6.68;5.32;;;;;;;17.34;71.16;101025.09;4930785;29;20051;-94
2023/07/21 08:21:24;;;;;;;7.13;4.97;;;;;;;17.35;69.56;101027.66;4933528;28;20198;-94
2023/07/21 08:23:51;;;;;;;6.40;4.88;;;;;;;17.40;70.15;101022.16;4933194;28;20054;-94
2023/07/21 08:26:17;;;;;;;8.88;5.20;;;;;;;17.43;69.43;101025.47;4937164;29;20039;-96
2023/07/21 08:28:43;;;;;;;6.35;4.85;;;;;;;17.49;68.25;101024.34;4933014;29;20403;-94
2023/07/21 08:31:11;;;;;;;5.82;4.20;;;;;;;17.52;66.38;101023.31;4934764;29;20027;-95
2023/07/21 08:33:46;;;;;;;5.35;4.03;;;;;;;17.57;66.36;101024.78;4939700;29;20023;-96
2023/07/21 08:36:11;;;;;;;6.38;4.28;;;;;;;17.64;67.06;101022.66;4937355;29;20023;-95
2023/07/21 08:38:37;;;;;;;5.45;4.20;;;;;;;17.70;64.70;101022.34;4937320;29;20031;-94
2023/07/21 08:41:05;;;;;;;4.05;3.30;;;;;;;17.74;63.44;101021.28;4938374;29;20463;-93
2023/07/21 08:43:34;;;;;;;4.47;3.00;;;;;;;17.77;64.33;101025.50;4926644;29;20457;-95
2023/07/21 08:46:08;;;;;;;4.85;3.60;;;;;;;17.78;64.02;101026.34;4934576;29;20555;-95
2023/07/21 08:48:34;;;;;;;5.03;3.20;;;;;;;17.77;63.28;101029.91;4938276;29;20420;-94
2023/07/21 08:51:05;;;;;;;4.10;3.25;;;;;;;17.78;64.24;101032.47;4939021;29;20031;-96
2023/07/21 08:53:30;;;;;;;4.35;3.42;;;;;;;17.81;63.39;101036.72;4935726;29;20122;-93
2023/07/21 08:55:58;;;;;;;5.50;3.92;;;;;;;17.80;62.67;101032.38;4929904;29;20114;-91
2023/07/21 08:58:24;;;;;;;5.78;3.92;;;;;;;17.78;63.50;101026.34;4932807;29;20027;-94
2023/07/21 09:00:53;;;;;;;5.75;4.20;;;;;;;17.78;63.59;101023.72;4937526;29;20031;-95
2023/07/21 09:03:23;;;;;;;4.75;3.75;;;;;;;17.77;63.03;101022.88;4937355;28;20020;-92
2023/07/21 09:05:52;;;;;;;5.95;3.92;;;;;;;17.75;63.73;101015.06;4940965;29;20019;-90
2023/07/21 09:08:40;;;;;;;4.13;3.50;;;;;;;17.73;63.72;101027.47;4940613;29;20023;-96
2023/07/21 09:11:07;;;;;;;4.47;3.17;;;;;;;17.71;61.90;101029.31;4936554;29;20039;-92
2023/07/21 09:13:33;;;;;;;4.15;3.08;;;;;;;17.69;61.50;101022.41;4959133;28;20028;-92
2023/07/21 09:16:01;;;;;;;4.55;3.10;;;;;;;17.67;61.07;101025.13;4941043;29;20050;-94
2023/07/21 09:18:31;;;;;;;3.63;2.67;;;;;;;17.65;60.44;101032.25;4928299;29;20030;-92
2023/07/21 09:20:59;;;;;;;3.90;3.28;;;;;;;17.66;61.62;101023.44;4931523;29;20475;-93
2023/07/21 09:23:54;;;;;;;;;;;;;;;;;;;;;
2023/07/21 09:26:23;;;;;;;5.22;3.65;;;;;;;17.79;63.34;101022.78;4938140;29;20055;-94
2023/07/21 09:28:48;;;;;;;4.93;3.45;;;;;;;17.85;63.00;101022.47;4934340;29;20111;-92
2023/07/21 09:31:14;;;;;;;4.50;3.63;;;;;;;17.89;61.31;101018.75;4928840;29;20130;-94
2023/07/21 09:33:45;;;;;;;4.82;3.63;;;;;;;17.93;63.44;101020.28;4933404;29;20032;-94
2023/07/21 09:36:15;;;;;;;5.22;4.00;;;;;;;17.95;61.77;101009.66;4936089;29;20066;-95
2023/07/21 09:38:41;;;;;;;5.05;3.78;;;;;;;17.99;62.09;101009.44;4938219;29;20109;-92
2023/07/21 09:41:09;;;;;;;5.28;4.15;;;;;;;18.04;62.66;101007.41;4937778;29;20083;-91
2023/07/21 09:43:36;;;;;;;6.75;4.35;;;;;;;18.11;61.55;101007.06;4932077;29;20471;-93
2023/07/21 09:46:03;;;;;;;6.18;4.22;;;;;;;18.20;63.34;101001.28;4933419;29;20182;-94
2023/07/21 09:48:30;;;;;;;5.43;3.80;;;;;;;18.31;62.78;100998.91;4934385;28;20032;-94
2023/07/21 09:51:07;;;;;;;5.45;4.40;;;;;;;18.40;60.77;100996.69;4924924;29;20043;-94
2023/07/21 09:53:38;;;;;;;7.78;4.47;;;;;;;18.48;60.91;100994.47;4935631;29;20034;-93
2023/07/21 09:56:04;;;;;;;4.77;3.73;;;;;;;18.59;59.20;100994.72;4935158;29;20046;-95
2023/07/21 09:58:33;;;;;;;5.82;4.00;;;;;;;18.71;60.78;100994.94;4936066;29;20322;-93
2023/07/21 10:01:04;;;;;;;8.20;4.88;;;;;;;18.83;59.74;100994.22;4932879;29;20019;-94
2023/07/21 10:03:40;;;;;;;7.35;4.90;;;;;;;18.91;59.54;100994.66;4938841;29;20027;-94
2023/07/21 10:06:08;;;;;;;8.82;6.35;;;;;;;19.01;59.53;100986.22;4932899;29;20050;-95
2023/07/21 10:08:43;;;;;;;8.05;5.47;;;;;;;19.11;60.30;100977.66;4940414;28;20031;-95
2023/07/21 10:11:09;;;;;;;9.13;5.95;;;;;;;19.25;59.16;100984.75;4934280;28;20501;-85
2023/07/21 10:13:54;;;;;;;;;;;;;;;;;;;;;
2023/07/21 10:16:21;;;;;;;7.72;6.10;;;;;;;19.47;57.48;100993.16;4937451;29;20027;-96
2023/07/21 10:19:11;;;;;;;7.78;5.97;;;;;;;19.49;59.12;100984.19;4933485;29;20029;-96
2023/07/21 10:21:49;;;;;;;8.25;6.00;;;;;;;19.60;59.26;100987.97;4939440;28;20114;-94
2023/07/21 10:24:33;;;;;;;7.03;5.50;;;;;;;19.65;58.54;100983.25;4934798;29;20035;-94
2023/07/21 10:27:03;;;;;;;6.95;5.00;;;;;;;19.71;55.97;100977.59;4932605;29;20032;-95
2023/07/21 10:29:52;;;;;;;9.53;5.17;;;;;;;19.90;57.22;100985.22;4933611;29;20557;-93
2023/07/21 10:32:26;;;;;;;9.55;5.68;;;;;;;19.99;54.76;100989.09;4932568;29;20058;-96
2023/07/21 10:34:52;;;;;;;7.53;5.38;;;;;;;19.97;54.11;100988.38;4935148;28;20027;-94
2023/07/21 10:37:19;;;;;;;6.47;4.57;;;;;;;19.85;55.30;100979.38;4937926;29;20038;-94
2023/07/21 10:40:03;;;;;;;;;;;;;;;;;;;;;
2023/07/21 10:42:43;;;;;;;;;;;;;;;;;;;;;
2023/07/21 10:45:11;;;;;;;8.90;5.22;;;;;;;19.65;56.84;100983.25;4940469;29;20497;-91
2023/07/21 10:51:45;;;;;;;;;;;;;;;;;;;;;
2023/07/21 10:54:19;;;;;;;5.13;4.03;;;;;;;19.64;57.63;100978.94;4946156;29;20112;-96
2023/07/21 10:57:59;;;;;;;;;;;;;;;;;;;;;
2023/07/21 11:00:47;;;;;;;;;;;;;;;;;;;;;
2023/07/21 11:07:34;;;;;;;6.70;4.80;;;;;;;19.50;59.44;100985.06;4932011;29;20054;-95
2023/07/21 11:17:38;;;;;;;6.53;5.10;;;;;;;19.35;58.97;100982.41;4958796;28;20131;-93
2023/07/21 11:20:19;;;;;;;7.85;5.97;;;;;;;19.31;59.20;100999.38;4958987;28;20035;-95
2023/07/21 11:22:48;;;;;;;7.63;6.38;;;;;;;19.22;57.88;100999.91;4921705;29;20036;-96
2023/07/21 11:25:13;;;;;;;10.25;7.63;;;;;;;19.16;59.22;101005.56;4915460;29;20443;-91
2023/07/21 11:27:43;;;;;;;13.60;9.77;;;;;;;19.06;60.52;101021.06;4940137;29;20042;-92
2023/07/21 11:30:09;;;;;;;12.75;8.75;;;;;;;18.96;58.52;101040.06;4937057;28;20542;-92
2023/07/21 11:32:34;;;;;;;8.82;7.22;;;;;;;18.83;57.80;101040.84;4937223;29;20031;-93
2023/07/21 11:35:03;;;;;;;7.70;5.20;;;;;;;18.69;57.30;101049.53;4937552;29;20089;-92
2023/07/21 11:37:58;;;;;;;6.20;4.93;;;;;;;18.48;59.84;101060.31;4939425;29;20019;-93
2023/07/21 11:40:25;;;;;;;6.32;4.68;;;;;;;18.13;63.52;101068.38;4921447;29;20027;-94
2023/07/21 11:42:52;;;;;;;7.00;5.40;;;;;;;17.84;65.46;101062.88;4924185;29;20023;-94
2023/07/21 11:45:39;;;;;;;7.07;5.93;;;;;;;17.52;64.95;101075.94;4936273;29;20039;-93
2023/07/21 11:48:19;;;;;;;8.73;6.53;;;;;;;17.18;68.89;101067.94;4938823;29;20036;-94
2023/07/21 11:50:50;;;;;;;9.55;6.07;;;;;;;16.97;69.81;101068.13;4935281;29;20418;-93